createdAt,value
2019-01-23T00:02:28.074Z,98993.59
2019-01-23T00:04:59.391Z,98982.78
2019-01-23T00:07:29.247Z,98980.55
2019-01-23T00:10:01.666Z,98981.30
2019-01-23T00:12:33.364Z,98978.20
2019-01-23T00:15:07.499Z,98969.95
2019-01-23T00:17:41.726Z,98973.29
2019-01-23T00:20:13.655Z,98968.92
2019-01-23T00:22:46.134Z,98966.78
2019-01-23T00:25:23.853Z,98959.03
2019-01-23T00:28:00.707Z,98960.62
2019-01-23T00:30:32.351Z,98963.10
2019-01-23T00:33:04.024Z,98958.39
2019-01-23T00:35:35.668Z,98948.44
2019-01-23T00:38:10.175Z,98945.06
2019-01-23T00:40:42.105Z,98942.95
2019-01-23T00:43:19.820Z,98949.90
2019-01-23T00:45:53.107Z,98940.39
2019-01-23T00:48:24.793Z,98938.57
2019-01-23T00:50:56.446Z,98937.66
2019-01-23T00:53:28.998Z,98931.55
2019-01-23T00:56:02.540Z,98930.16
2019-01-23T00:58:36.675Z,98924.94
2019-01-23T01:01:08.310Z,98927.08
2019-01-23T01:03:40.172Z,98930.99
2019-01-23T01:06:21.954Z,98923.20
2019-01-23T01:09:00.349Z,98921.38
2019-01-23T01:11:32.945Z,98920.05
2019-01-23T01:14:04.641Z,98917.83
2019-01-23T01:16:36.757Z,98906.64
2019-01-23T01:19:08.379Z,98910.37
2019-01-23T01:21:40.237Z,98909.42
2019-01-23T01:24:13.964Z,98905.12
2019-01-23T01:26:57.358Z,98900.84
2019-01-23T01:29:29.222Z,98902.93
2019-01-23T01:32:00.844Z,98901.47
2019-01-23T01:34:32.464Z,98893.27
2019-01-23T01:37:04.167Z,98888.86
2019-01-23T01:39:35.799Z,98886.58
2019-01-23T01:42:07.886Z,98883.02
2019-01-23T01:44:43.753Z,98876.45
2019-01-23T01:47:13.027Z,98874.20
2019-01-23T01:49:44.883Z,98867.25
2019-01-23T01:52:16.550Z,98861.56
2019-01-23T01:54:48.183Z,98860.69
2019-01-23T01:57:21.804Z,98861.09
2019-01-23T01:59:55.988Z,98861.89
2019-01-23T02:02:28.625Z,98857.96
2019-01-23T02:05:00.794Z,98856.98
2019-01-23T02:07:30.022Z,98852.18
2019-01-23T02:10:01.697Z,98850.86
2019-01-23T02:12:33.483Z,98845.61
2019-01-23T02:15:06.990Z,98837.80
2019-01-23T02:17:41.594Z,98833.43
2019-01-23T02:20:23.070Z,98834.28
2019-01-23T02:22:54.465Z,98826.06
2019-01-23T02:25:26.096Z,98824.30
2019-01-23T02:27:57.876Z,98820.34
2019-01-23T02:30:29.532Z,98817.22
2019-01-23T02:33:01.745Z,98821.88
2019-01-23T02:38:01.259Z,98812.59
2019-01-23T02:40:32.946Z,98815.27
2019-01-23T02:43:04.695Z,98807.52
2019-01-23T02:45:36.443Z,98801.45
2019-01-23T02:48:08.194Z,98797.13
2019-01-23T02:50:39.262Z,98796.66
2019-01-23T02:53:08.542Z,98781.58
2019-01-23T02:55:40.253Z,98780.73
2019-01-23T02:58:11.899Z,98773.86
2019-01-23T03:00:43.551Z,98767.10
2019-01-23T03:03:15.209Z,98763.80
2019-01-23T03:05:46.822Z,98765.28
2019-01-23T03:08:18.533Z,98754.27
2019-01-23T03:15:54.474Z,98743.72
2019-01-23T03:18:26.163Z,98743.37
2019-01-23T03:20:57.811Z,98740.50
2019-01-23T03:23:32.842Z,98737.98
2019-01-23T03:26:04.465Z,98736.32
2019-01-23T03:28:36.137Z,98737.61
2019-01-23T03:31:07.897Z,98738.46
2019-01-23T03:33:39.519Z,98735.41
2019-01-23T03:36:11.148Z,98734.47
2019-01-23T03:38:42.769Z,98735.70
2019-01-23T03:41:14.376Z,98734.41
2019-01-23T03:43:46.032Z,98730.03
2019-01-23T03:46:17.858Z,98726.16
2019-01-23T03:48:49.568Z,98724.09
2019-01-23T03:51:21.277Z,98722.45
2019-01-23T03:53:52.911Z,98720.06
2019-01-23T03:56:24.556Z,98713.20
2019-01-23T03:58:56.264Z,98715.91
2019-01-23T04:01:27.907Z,98712.07
2019-01-23T04:03:59.774Z,98708.64
2019-01-23T04:06:32.136Z,98711.63
2019-01-23T04:09:04.956Z,98706.06
2019-01-23T04:11:36.626Z,98703.58
2019-01-23T04:14:08.240Z,98700.18
2019-01-23T04:16:39.893Z,98701.56
2019-01-23T04:19:11.610Z,98694.39
2019-01-23T04:21:43.234Z,98692.73
2019-01-23T04:24:14.890Z,98683.83
2019-01-23T04:26:46.489Z,98691.15
2019-01-23T04:29:19.807Z,98692.88
2019-01-23T04:31:51.406Z,98688.60
2019-01-23T04:34:23.229Z,98691.24
2019-01-23T04:36:54.865Z,98684.07
2019-01-23T04:39:26.539Z,98682.40
2019-01-23T04:41:58.156Z,98686.70
2019-01-23T04:44:29.797Z,98677.28
2019-01-23T04:47:01.392Z,98678.19
2019-01-23T04:49:34.894Z,98671.80
2019-01-23T04:52:19.266Z,98667.97
2019-01-23T04:54:50.913Z,98661.61
2019-01-23T04:57:22.547Z,98660.80
2019-01-23T04:59:54.156Z,98666.04
2019-01-23T05:02:25.768Z,98656.64
2019-01-23T05:10:00.550Z,98660.30
2019-01-23T05:12:35.311Z,98660.74
2019-01-23T05:15:08.967Z,98653.86
2019-01-23T05:17:41.845Z,98654.30
2019-01-23T05:20:22.245Z,98645.73
2019-01-23T05:22:57.576Z,98651.31
2019-01-23T05:25:29.245Z,98647.92
2019-01-23T05:28:00.966Z,98645.34
2019-01-23T05:30:32.561Z,98642.77
2019-01-23T05:33:04.166Z,98642.36
2019-01-23T05:35:36.190Z,98632.49
2019-01-23T05:38:07.847Z,98642.39
2019-01-23T05:40:39.874Z,98629.98
2019-01-23T05:43:11.507Z,98632.61
2019-01-23T05:45:43.185Z,98619.36
2019-01-23T05:48:14.844Z,98628.90
2019-01-23T05:50:46.895Z,98631.18
2019-01-23T05:53:18.538Z,98623.92
2019-01-23T05:55:50.191Z,98621.44
2019-01-23T05:58:21.911Z,98619.30
2019-01-23T06:00:53.588Z,98631.33
2019-01-23T06:03:25.244Z,98626.17
2019-01-23T06:05:58.151Z,98626.20
2019-01-23T06:08:29.765Z,98623.63
2019-01-23T06:11:01.433Z,98619.33
2019-01-23T06:13:33.148Z,98620.17
2019-01-23T06:16:04.776Z,98625.20
2019-01-23T06:18:38.009Z,98628.66
2019-01-23T06:21:09.670Z,98624.03
2019-01-23T06:23:41.818Z,98623.59
2019-01-23T06:26:13.670Z,98624.45
2019-01-23T06:28:45.464Z,98627.87
2019-01-23T06:31:17.123Z,98621.44
2019-01-23T06:33:48.760Z,98628.75
2019-01-23T06:36:20.359Z,98620.17
2019-01-23T06:38:52.379Z,98625.41
2019-01-23T06:41:24.142Z,98629.33
2019-01-23T06:43:55.838Z,98624.23
2019-01-23T06:46:27.421Z,98622.95
2019-01-23T06:48:59.110Z,98620.41
2019-01-23T06:51:30.756Z,98621.30
2019-01-23T06:54:03.213Z,98621.80
2019-01-23T06:56:34.917Z,98616.25
2019-01-23T06:59:06.617Z,98614.11
2019-01-23T07:01:38.368Z,98611.53
2019-01-23T07:04:10.004Z,98611.97
2019-01-23T07:06:42.531Z,98611.97
2019-01-23T07:09:14.906Z,98611.13
2019-01-23T07:11:46.676Z,98614.22
2019-01-23T07:14:18.342Z,98609.52
2019-01-23T07:16:49.980Z,98611.65
2019-01-23T07:19:23.089Z,98613.46
2019-01-23T07:21:54.748Z,98610.47
2019-01-23T07:24:27.119Z,98608.77
2019-01-23T07:26:58.735Z,98606.64
2019-01-23T07:29:30.433Z,98618.14
2019-01-23T07:32:02.016Z,98615.98
2019-01-23T07:34:33.621Z,98614.22
2019-01-23T07:37:05.266Z,98614.25
2019-01-23T07:39:40.378Z,98613.40
2019-01-23T07:42:12.042Z,98612.61
2019-01-23T07:44:43.891Z,98609.53
2019-01-23T07:47:15.486Z,98607.81
2019-01-23T07:49:47.169Z,98600.89
2019-01-23T07:52:18.782Z,98604.69
2019-01-23T07:54:51.072Z,98597.70
2019-01-23T07:57:22.740Z,98592.08
2019-01-23T07:59:54.475Z,98595.01
2019-01-23T08:02:26.126Z,98597.20
2019-01-23T08:04:58.641Z,98597.23
2019-01-23T08:07:30.292Z,98597.67
2019-01-23T08:10:01.964Z,98601.91
2019-01-23T08:12:34.260Z,98595.83
2019-01-23T08:15:10.746Z,98593.57
2019-01-23T08:17:42.467Z,98593.95
2019-01-23T08:20:17.538Z,98592.55
2019-01-23T08:22:49.189Z,98595.82
2019-01-23T08:25:21.014Z,98605.16
2019-01-23T08:27:53.296Z,98602.93
2019-01-23T08:30:25.635Z,98597.34
2019-01-23T08:32:57.402Z,98603.59
2019-01-23T08:35:29.814Z,98605.05
2019-01-23T08:38:01.536Z,98602.25
2019-01-23T08:40:33.191Z,98599.52
2019-01-23T08:43:05.877Z,98597.19
2019-01-23T08:45:37.668Z,98602.69
2019-01-23T08:48:09.559Z,98596.62
2019-01-23T08:50:44.339Z,98588.31
2019-01-23T08:53:15.999Z,98591.58
2019-01-23T08:55:53.491Z,98588.89
2019-01-23T08:58:21.110Z,98589.27
2019-01-23T09:00:53.360Z,98593.98
2019-01-23T09:03:25.093Z,98597.79
2019-01-23T09:05:57.425Z,98592.56
2019-01-23T09:08:29.103Z,98596.37
2019-01-23T09:11:00.802Z,98595.05
2019-01-23T09:13:32.584Z,98588.05
2019-01-23T09:16:04.235Z,98593.17
2019-01-23T09:18:36.513Z,98591.41
2019-01-23T09:21:08.683Z,98594.77
2019-01-23T09:23:40.909Z,98596.84
2019-01-23T09:26:12.666Z,98591.24
2019-01-23T09:28:44.306Z,98599.69
2019-01-23T09:32:19.036Z,98597.38
2019-01-23T09:35:45.106Z,98600.33
2019-01-23T09:38:48.899Z,98593.88
2019-01-23T09:42:09.886Z,98601.69
2019-01-23T09:45:26.724Z,98605.73
2019-01-23T09:48:27.049Z,98600.75
2019-01-23T09:51:52.951Z,98602.52
2019-01-23T09:54:26.052Z,98599.45
2019-01-23T09:56:57.849Z,98598.13
2019-01-23T09:59:29.531Z,98598.78
2019-01-23T10:02:01.156Z,98598.53
2019-01-23T10:04:33.013Z,98596.11
2019-01-23T10:07:04.668Z,98593.83
2019-01-23T10:09:36.773Z,98600.07
2019-01-23T10:12:08.484Z,98590.08
2019-01-23T10:14:45.155Z,98592.52
2019-01-23T10:17:16.818Z,98589.38
2019-01-23T10:19:48.517Z,98584.59
2019-01-23T10:22:20.201Z,98587.62
2019-01-23T10:24:51.850Z,98588.87
2019-01-23T10:27:24.360Z,98589.98
2019-01-23T10:29:56.073Z,98579.24
2019-01-23T10:32:28.234Z,98584.11
2019-01-23T10:34:59.870Z,98590.53
2019-01-23T10:37:32.810Z,98589.49
2019-01-23T10:40:06.546Z,98580.75
2019-01-23T10:42:38.591Z,98586.66
2019-01-23T10:45:12.536Z,98580.45
2019-01-23T10:47:44.452Z,98581.52
2019-01-23T10:50:16.539Z,98567.93
2019-01-23T10:52:48.203Z,98570.72
2019-01-23T10:55:19.831Z,98572.27
2019-01-23T10:57:51.573Z,98567.74
2019-01-23T11:00:23.613Z,98563.75
2019-01-23T11:02:55.278Z,98567.54
2019-01-23T11:05:27.431Z,98565.69
2019-01-23T11:07:59.469Z,98570.73
2019-01-23T11:10:31.226Z,98564.72
2019-01-23T11:13:02.890Z,98558.66
2019-01-23T11:15:35.569Z,98562.98
2019-01-23T11:18:07.772Z,98559.02
2019-01-23T11:20:39.438Z,98558.42
2019-01-23T11:23:11.363Z,98565.37
2019-01-23T11:25:43.061Z,98564.97
2019-01-23T11:28:14.770Z,98561.84
2019-01-23T11:30:46.473Z,98568.31
2019-01-23T11:33:18.156Z,98563.47
2019-01-23T11:35:50.514Z,98564.55
2019-01-23T11:38:22.311Z,98559.95
2019-01-23T11:40:54.026Z,98558.56
2019-01-23T11:43:25.844Z,98552.95
2019-01-23T11:45:57.643Z,98557.59
2019-01-23T11:48:29.267Z,98556.30
2019-01-23T11:51:00.971Z,98550.36
2019-01-23T11:53:32.639Z,98549.92
2019-01-23T11:56:05.111Z,98550.77
2019-01-23T11:58:36.800Z,98551.94
2019-01-23T12:01:08.464Z,98548.73
2019-01-23T12:03:40.398Z,98555.39
2019-01-23T12:06:19.176Z,98558.30
2019-01-23T12:08:50.871Z,98565.52
2019-01-23T12:11:22.968Z,98563.70
2019-01-23T12:13:54.713Z,98560.27
2019-01-23T12:16:26.594Z,98559.42
2019-01-23T12:18:58.742Z,98560.67
2019-01-23T12:21:30.446Z,98554.59
2019-01-23T12:24:02.069Z,98553.63
2019-01-23T12:26:34.137Z,98558.31
2019-01-23T12:29:05.951Z,98559.87
2019-01-23T12:31:37.695Z,98555.38
2019-01-23T12:34:09.469Z,98549.70
2019-01-23T12:36:41.458Z,98553.98
2019-01-23T12:39:13.319Z,98558.59
2019-01-23T12:41:45.841Z,98565.51
2019-01-23T12:44:17.464Z,98556.58
2019-01-23T12:46:49.126Z,98559.88
2019-01-23T12:49:20.794Z,98555.16
2019-01-23T12:51:51.404Z,98558.23
2019-01-23T12:54:20.638Z,98558.81
2019-01-23T12:56:52.380Z,98560.23
2019-01-23T12:59:24.140Z,98561.52
2019-01-23T13:01:55.987Z,98568.04
2019-01-23T13:04:27.809Z,98573.83
2019-01-23T13:07:00.018Z,98571.86
2019-01-23T13:09:31.667Z,98574.89
2019-01-23T13:12:03.654Z,98575.73
2019-01-23T13:14:35.520Z,98575.34
2019-01-23T13:17:07.242Z,98574.22
2019-01-23T13:19:39.037Z,98573.37
2019-01-23T13:22:10.973Z,98579.88
2019-01-23T13:24:42.761Z,98578.75
2019-01-23T13:27:14.472Z,98587.92
2019-01-23T13:29:46.304Z,98589.22
2019-01-23T13:32:17.934Z,98590.91
2019-01-23T13:34:50.874Z,98590.95
2019-01-23T13:37:22.763Z,98589.66
2019-01-23T13:39:54.429Z,98594.03
2019-01-23T13:42:26.055Z,98592.86
2019-01-23T13:44:57.861Z,98594.64
2019-01-23T13:47:29.480Z,98591.66
2019-01-23T13:50:01.113Z,98589.88
2019-01-23T13:52:32.893Z,98594.64
2019-01-23T13:55:05.665Z,98595.49
2019-01-23T13:57:37.302Z,98599.37
2019-01-23T14:00:16.070Z,98600.27
2019-01-23T14:02:47.687Z,98599.77
2019-01-23T14:05:18.542Z,98600.13
2019-01-23T14:07:47.804Z,98600.86
2019-01-23T14:10:21.910Z,98606.47
2019-01-23T14:12:53.606Z,98605.63
2019-01-23T14:15:29.860Z,98608.22
2019-01-23T14:18:02.696Z,98615.41
2019-01-23T14:20:34.477Z,98617.10
2019-01-23T14:23:06.528Z,98614.07
2019-01-23T14:25:38.275Z,98617.77
2019-01-23T14:28:10.358Z,98614.82
2019-01-23T14:30:45.463Z,98626.06
2019-01-23T14:33:17.290Z,98625.78
2019-01-23T14:35:50.359Z,98629.02
2019-01-23T14:38:22.015Z,98624.98
2019-01-23T14:40:53.688Z,98628.17
2019-01-23T14:43:25.335Z,98637.71
2019-01-23T14:45:57.125Z,98638.96
2019-01-23T14:48:29.203Z,98632.21
2019-01-23T14:51:01.004Z,98646.96
2019-01-23T14:53:32.758Z,98640.33
2019-01-23T14:56:04.583Z,98650.75
2019-01-23T14:58:36.610Z,98650.91
2019-01-23T15:01:08.322Z,98651.80
2019-01-23T15:03:40.014Z,98651.87
2019-01-23T15:06:11.858Z,98666.57
2019-01-23T15:08:43.918Z,98668.35
2019-01-23T15:11:16.112Z,98666.17
2019-01-23T15:13:49.468Z,98665.24
2019-01-23T15:16:21.111Z,98668.20
2019-01-23T15:18:52.861Z,98673.00
2019-01-23T15:21:24.711Z,98667.02
2019-01-23T15:23:56.688Z,98679.54
2019-01-23T15:26:28.411Z,98679.61
2019-01-23T15:29:00.142Z,98677.06
2019-01-23T15:31:31.954Z,98673.27
2019-01-23T15:34:04.927Z,98674.56
2019-01-23T15:36:36.719Z,98679.28
2019-01-23T15:39:10.130Z,98677.95
2019-01-23T15:41:42.150Z,98687.73
2019-01-23T15:44:14.993Z,98690.32
2019-01-23T15:46:46.632Z,98696.41
2019-01-23T15:49:18.646Z,98696.08
2019-01-23T15:51:50.297Z,98697.45
2019-01-23T15:54:22.244Z,98695.50
2019-01-23T15:56:54.093Z,98698.23
2019-01-23T15:59:25.852Z,98699.11
2019-01-23T16:01:57.580Z,98699.45
2019-01-23T16:04:29.518Z,98705.43
2019-01-23T16:07:01.492Z,98704.58
2019-01-23T16:09:33.494Z,98713.63
2019-01-23T16:12:05.536Z,98714.52
2019-01-23T16:14:37.306Z,98721.89
2019-01-23T16:17:10.056Z,98724.81
2019-01-23T16:19:41.733Z,98728.24
2019-01-23T16:22:13.518Z,98728.65
2019-01-23T16:24:45.321Z,98732.45
2019-01-23T16:27:17.242Z,98732.97
2019-01-23T16:29:49.170Z,98735.59
2019-01-23T16:32:31.209Z,98741.27
2019-01-23T16:34:57.752Z,98746.11
2019-01-23T16:37:29.732Z,98743.66
2019-01-23T16:40:01.589Z,98743.66
2019-01-23T16:42:33.487Z,98750.05
2019-01-23T16:45:06.845Z,98756.00
2019-01-23T16:47:38.626Z,98749.98
2019-01-23T16:50:18.011Z,98750.53
2019-01-23T16:52:50.124Z,98759.68
2019-01-23T16:55:21.857Z,98761.89
2019-01-23T16:57:54.225Z,98767.54
2019-01-23T17:00:27.307Z,98767.67
2019-01-23T17:02:59.633Z,98772.54
2019-01-23T17:05:33.601Z,98777.41
2019-01-23T17:08:08.555Z,98780.39
2019-01-23T17:10:40.460Z,98783.76
2019-01-23T17:13:12.554Z,98791.00
2019-01-23T17:15:44.377Z,98792.22
2019-01-23T17:18:16.401Z,98796.09
2019-01-23T17:20:50.143Z,98800.85
2019-01-23T17:23:21.850Z,98807.38
2019-01-23T17:25:53.765Z,98812.17
2019-01-23T17:28:25.678Z,98810.95
2019-01-23T17:30:57.612Z,98815.70
2019-01-23T17:33:34.785Z,98819.98
2019-01-23T17:36:06.507Z,98820.46
2019-01-23T17:38:38.319Z,98822.20
2019-01-23T17:41:10.076Z,98826.07
2019-01-23T17:43:42.201Z,98821.78
2019-01-23T17:46:13.987Z,98827.39
2019-01-23T17:48:45.859Z,98832.56
2019-01-23T17:51:18.000Z,98826.17
2019-01-23T17:53:49.726Z,98834.80
2019-01-23T17:56:21.551Z,98830.52
2019-01-23T17:58:53.670Z,98844.63
2019-01-23T18:01:25.578Z,98839.83
2019-01-23T18:03:57.525Z,98836.80
2019-01-23T18:06:29.502Z,98845.81
2019-01-23T18:09:01.248Z,98850.16
2019-01-23T18:11:33.103Z,98846.83
2019-01-23T18:14:05.212Z,98849.48
2019-01-23T18:16:36.937Z,98849.45
2019-01-23T18:19:08.870Z,98853.32
2019-01-23T18:21:40.680Z,98857.09
2019-01-23T18:24:12.472Z,98856.59
2019-01-23T18:26:44.293Z,98857.78
2019-01-23T18:29:16.311Z,98859.48
2019-01-23T18:32:03.127Z,98862.85
2019-01-23T18:35:31.042Z,98862.81
2019-01-23T18:39:01.973Z,98874.44
2019-01-23T18:42:20.059Z,98876.34
2019-01-23T18:46:13.015Z,98876.88
2019-01-23T18:49:47.435Z,98880.34
2019-01-23T18:52:19.473Z,98888.22
2019-01-23T18:54:51.439Z,98890.05
2019-01-23T18:57:26.735Z,98890.92
2019-01-23T18:59:59.248Z,98884.47
2019-01-23T19:02:31.416Z,98891.40
2019-01-23T19:05:03.215Z,98895.34
2019-01-23T19:07:35.315Z,98897.03
2019-01-23T19:10:11.344Z,98899.97
2019-01-23T19:12:43.087Z,98908.53
2019-01-23T19:15:17.531Z,98907.59
2019-01-23T19:17:49.471Z,98906.33
2019-01-23T19:20:22.359Z,98918.73
2019-01-23T19:22:54.404Z,98920.91
2019-01-23T19:25:26.219Z,98921.73
2019-01-23T19:27:57.951Z,98921.29
2019-01-23T19:30:29.667Z,98938.45
2019-01-23T19:33:01.726Z,98932.06
2019-01-23T19:35:33.465Z,98933.91
2019-01-23T19:38:09.539Z,98944.75
2019-01-23T19:40:49.092Z,98934.98
2019-01-23T19:43:21.122Z,98934.19
2019-01-23T19:45:52.881Z,98943.55
2019-01-23T19:48:28.735Z,98943.05
2019-01-23T19:51:05.798Z,98939.27
2019-01-23T19:53:46.085Z,98932.91
2019-01-23T19:56:25.771Z,98941.12
2019-01-23T19:58:57.504Z,98942.41
2019-01-23T20:01:29.845Z,98937.16
2019-01-23T20:04:08.083Z,98934.63
2019-01-23T20:06:43.132Z,98942.84
2019-01-23T20:09:18.062Z,98942.41
2019-01-23T20:11:50.869Z,98944.96
2019-01-23T20:14:22.689Z,98951.83
2019-01-23T20:16:54.497Z,98953.12
2019-01-23T20:19:26.268Z,98952.30
2019-01-23T20:21:58.077Z,98956.61
2019-01-23T20:24:30.168Z,98963.95
2019-01-23T20:27:02.270Z,98968.70
2019-01-23T20:29:34.359Z,98973.48
2019-01-23T20:32:06.204Z,98981.17
2019-01-23T20:34:49.185Z,98981.99
2019-01-23T20:37:25.739Z,98978.97
2019-01-23T20:39:57.533Z,98989.70
2019-01-23T20:42:31.696Z,98995.66
2019-01-23T20:45:03.701Z,98998.66
2019-01-23T20:47:35.460Z,99001.23
2019-01-23T20:50:12.485Z,99001.68
2019-01-23T20:52:44.150Z,98994.87
2019-01-23T20:55:17.585Z,99001.38
2019-01-23T20:57:49.335Z,99001.83
2019-01-23T21:00:25.120Z,99008.25
2019-01-23T21:02:56.916Z,99004.77
2019-01-23T21:05:29.682Z,99014.16
2019-01-23T21:08:12.165Z,99015.41
2019-01-23T21:15:52.958Z,99020.48
2019-01-23T21:18:24.732Z,99020.02
2019-01-23T21:20:56.558Z,99024.34
2019-01-23T21:23:28.414Z,99026.06
2019-01-23T21:26:00.297Z,99028.62
2019-01-23T21:28:32.034Z,99024.31
2019-01-23T21:31:03.773Z,99035.84
2019-01-23T21:33:42.096Z,99038.81
2019-01-23T21:36:12.245Z,99032.73
2019-01-23T21:38:44.181Z,99033.99
2019-01-23T21:41:16.644Z,99036.98
2019-01-23T21:43:48.617Z,99040.42
2019-01-23T21:46:20.367Z,99045.59
2019-01-23T21:48:52.124Z,99049.02
2019-01-23T21:51:25.183Z,99045.50
2019-01-23T21:53:57.319Z,99050.20
2019-01-23T21:56:29.170Z,99047.17
2019-01-23T21:59:00.944Z,99058.36
2019-01-23T22:01:32.836Z,99055.30
2019-01-23T22:04:04.934Z,99055.36
2019-01-23T22:06:39.360Z,99056.77
2019-01-23T22:09:11.171Z,99067.12
2019-01-23T22:11:43.739Z,99075.32
2019-01-23T22:14:16.186Z,99076.64
2019-01-23T22:16:48.012Z,99075.41
2019-01-23T22:19:19.880Z,99083.59
2019-01-23T22:21:53.497Z,99090.84
2019-01-23T22:24:25.351Z,99088.27
2019-01-23T22:26:58.743Z,99085.24
2019-01-23T22:29:30.666Z,99087.38
2019-01-23T22:32:02.368Z,99086.09
2019-01-23T22:34:34.101Z,99084.39
2019-01-23T22:37:05.990Z,99092.58
2019-01-23T22:39:39.391Z,99095.16
2019-01-23T22:42:11.160Z,99101.17
2019-01-23T22:44:43.932Z,99099.50
2019-01-23T22:47:16.298Z,99101.13
2019-01-23T22:49:48.478Z,99102.36
2019-01-23T22:52:20.860Z,99107.50
2019-01-23T22:54:53.434Z,99107.91
2019-01-23T22:57:25.115Z,99109.64
2019-01-23T22:59:57.181Z,99109.28
2019-01-23T23:02:29.375Z,99110.63
2019-01-23T23:05:01.044Z,99122.34
2019-01-23T23:07:33.878Z,99127.14
2019-01-23T23:10:07.493Z,99135.05
2019-01-23T23:12:41.448Z,99140.33
2019-01-23T23:15:13.728Z,99144.25
2019-01-23T23:17:45.646Z,99145.19
2019-01-23T23:20:17.633Z,99149.11
2019-01-23T23:22:49.599Z,99156.13
2019-01-23T23:25:21.278Z,99164.05
2019-01-23T23:27:53.398Z,99165.36
2019-01-23T23:30:26.466Z,99165.86
2019-01-23T23:32:58.695Z,99170.19
2019-01-23T23:35:30.380Z,99172.79
2019-01-23T23:38:02.068Z,99174.57
2019-01-23T23:40:33.725Z,99180.53
2019-01-23T23:43:07.802Z,99186.11
2019-01-23T23:45:40.229Z,99190.44
2019-01-23T23:48:13.484Z,99193.52
2019-01-23T23:50:45.160Z,99199.57
2019-01-23T23:53:16.943Z,99201.35
2019-01-23T23:55:48.880Z,99199.21
2019-01-23T23:58:20.630Z,99209.53
